sensor_id;sensor_type;location;lat;lon;timestamp;pressure;altitude;pressure_sealevel;temperature;humidity
60089;BME280;45961;53.574;55.878;2023-08-20T00:00:11;100073.84;;;16.41;82.37
60089;BME280;45961;53.574;55.878;2023-08-20T00:01:19;100072.22;;;16.34;82.45
60089;BME280;45961;53.574;55.878;2023-08-20T00:02:23;100075.66;;;16.36;82.75
60089;BME280;45961;53.574;55.878;2023-08-20T00:03:24;100076.59;;;16.32;82.64
60089;BME280;45961;53.574;55.878;2023-08-20T00:04:26;100072.25;;;16.31;82.95
60089;BME280;45961;53.574;55.878;2023-08-20T00:05:29;100074.81;;;16.34;82.92
60089;BME280;45961;53.574;55.878;2023-08-20T00:06:30;100070.50;;;16.31;82.49
60089;BME280;45961;53.574;55.878;2023-08-20T00:07:31;100071.34;;;16.33;82.55
60089;BME280;45961;53.574;55.878;2023-08-20T00:08:32;100073.19;;;16.26;82.98
60089;BME280;45961;53.574;55.878;2023-08-20T00:09:33;100052.56;;;16.11;82.74
60089;BME280;45961;53.574;55.878;2023-08-20T00:10:34;100067.16;;;16.24;82.51
60089;BME280;45961;53.574;55.878;2023-08-20T00:11:36;100069.75;;;16.24;82.51
60089;BME280;45961;53.574;55.878;2023-08-20T00:12:37;100068.94;;;16.21;82.68
60089;BME280;45961;53.574;55.878;2023-08-20T00:13:39;100074.00;;;16.30;82.53
60089;BME280;45961;53.574;55.878;2023-08-20T00:14:57;100070.63;;;16.23;82.12
60089;BME280;45961;53.574;55.878;2023-08-20T00:16:08;100074.19;;;16.19;82.20
60089;BME280;45961;53.574;55.878;2023-08-20T00:17:10;100068.19;;;16.14;82.46
60089;BME280;45961;53.574;55.878;2023-08-20T00:18:11;100060.47;;;16.08;82.76
60089;BME280;45961;53.574;55.878;2023-08-20T00:19:12;100067.34;;;16.12;82.39
60089;BME280;45961;53.574;55.878;2023-08-20T00:20:14;100073.59;;;16.02;82.61
60089;BME280;45961;53.574;55.878;2023-08-20T00:21:15;100069.13;;;16.10;82.73
60089;BME280;45961;53.574;55.878;2023-08-20T00:22:16;100073.47;;;16.10;82.35
60089;BME280;45961;53.574;55.878;2023-08-20T00:23:17;100068.19;;;16.14;82.33
60089;BME280;45961;53.574;55.878;2023-08-20T00:24:19;100073.38;;;16.16;82.08
60089;BME280;45961;53.574;55.878;2023-08-20T00:25:20;100072.63;;;16.09;82.38
60089;BME280;45961;53.574;55.878;2023-08-20T00:26:21;100066.41;;;16.15;82.44
60089;BME280;45961;53.574;55.878;2023-08-20T00:27:22;100047.56;;;15.96;82.47
60089;BME280;45961;53.574;55.878;2023-08-20T00:28:23;100069.16;;;16.09;82.75
60089;BME280;45961;53.574;55.878;2023-08-20T00:29:24;100078.69;;;16.10;82.55
60089;BME280;45961;53.574;55.878;2023-08-20T00:30:25;100063.09;;;16.05;82.91
60089;BME280;45961;53.574;55.878;2023-08-20T00:31:27;100087.44;;;16.09;82.88
60089;BME280;45961;53.574;55.878;2023-08-20T00:32:27;100075.34;;;16.01;82.91
60089;BME280;45961;53.574;55.878;2023-08-20T00:33:29;100086.72;;;15.97;82.95
60089;BME280;45961;53.574;55.878;2023-08-20T00:34:30;100077.22;;;15.92;83.64
60089;BME280;45961;53.574;55.878;2023-08-20T00:35:31;100079.03;;;15.88;83.53
60089;BME280;45961;53.574;55.878;2023-08-20T00:36:32;100082.59;;;15.83;83.67
60089;BME280;45961;53.574;55.878;2023-08-20T00:37:33;100075.78;;;15.72;83.93
60089;BME280;45961;53.574;55.878;2023-08-20T00:38:34;100083.56;;;15.75;84.02
60089;BME280;45961;53.574;55.878;2023-08-20T00:39:36;100076.72;;;15.68;83.80
60089;BME280;45961;53.574;55.878;2023-08-20T00:40:38;100080.19;;;15.67;84.01
60089;BME280;45961;53.574;55.878;2023-08-20T00:41:39;100088.03;;;15.63;84.11
60089;BME280;45961;53.574;55.878;2023-08-20T00:42:40;100082.03;;;15.58;84.25
60089;BME280;45961;53.574;55.878;2023-08-20T00:43:42;100083.78;;;15.57;84.41
60089;BME280;45961;53.574;55.878;2023-08-20T00:44:43;100076.84;;;15.56;84.28
60089;BME280;45961;53.574;55.878;2023-08-20T00:45:47;100084.72;;;15.53;84.42
60089;BME280;45961;53.574;55.878;2023-08-20T00:46:48;100084.81;;;15.45;84.84
60089;BME280;45961;53.574;55.878;2023-08-20T00:47:50;100084.78;;;15.47;84.75
60089;BME280;45961;53.574;55.878;2023-08-20T00:48:51;100060.69;;;15.29;85.09
60089;BME280;45961;53.574;55.878;2023-08-20T00:49:52;100087.47;;;15.41;85.13
60089;BME280;45961;53.574;55.878;2023-08-20T00:50:53;100089.16;;;15.45;84.90
60089;BME280;45961;53.574;55.878;2023-08-20T00:51:55;100085.81;;;15.35;85.10
60089;BME280;45961;53.574;55.878;2023-08-20T00:52:56;100090.16;;;15.36;85.04
60089;BME280;45961;53.574;55.878;2023-08-20T00:53:57;100090.97;;;15.38;85.23
60089;BME280;45961;53.574;55.878;2023-08-20T00:54:59;100093.63;;;15.35;85.02
60089;BME280;45961;53.574;55.878;2023-08-20T00:56:00;100099.72;;;15.36;85.08
60089;BME280;45961;53.574;55.878;2023-08-20T00:57:02;100100.56;;;15.38;85.28
60089;BME280;45961;53.574;55.878;2023-08-20T00:58:04;100076.41;;;15.22;85.30
60089;BME280;45961;53.574;55.878;2023-08-20T00:59:07;100087.66;;;15.25;85.13
60089;BME280;45961;53.574;55.878;2023-08-20T01:00:09;100088.59;;;15.21;85.37
60089;BME280;45961;53.574;55.878;2023-08-20T01:01:12;100098.03;;;15.30;85.46
60089;BME280;45961;53.574;55.878;2023-08-20T01:02:13;100101.59;;;15.24;85.16
60089;BME280;45961;53.574;55.878;2023-08-20T01:03:15;100092.94;;;15.19;85.36
60089;BME280;45961;53.574;55.878;2023-08-20T01:04:16;100091.25;;;15.15;85.34
60089;BME280;45961;53.574;55.878;2023-08-20T01:05:18;100113.00;;;15.16;85.28
60089;BME280;45961;53.574;55.878;2023-08-20T01:07:47;100084.47;;;15.02;85.48
60089;BME280;45961;53.574;55.878;2023-08-20T01:08:57;100095.69;;;15.07;85.51
60089;BME280;45961;53.574;55.878;2023-08-20T01:10:18;100098.31;;;15.07;85.32
60089;BME280;45961;53.574;55.878;2023-08-20T01:11:37;100069.00;;;14.87;85.50
60089;BME280;45961;53.574;55.878;2023-08-20T01:12:41;100094.88;;;15.02;85.81
60089;BME280;45961;53.574;55.878;2023-08-20T01:13:42;100091.44;;;15.01;85.97
60089;BME280;45961;53.574;55.878;2023-08-20T01:14:43;100096.59;;;15.03;86.15
60089;BME280;45961;53.574;55.878;2023-08-20T01:15:44;100103.56;;;15.04;85.94
60089;BME280;45961;53.574;55.878;2023-08-20T01:16:45;100101.91;;;14.97;85.73
60089;BME280;45961;53.574;55.878;2023-08-20T01:17:48;100097.53;;;15.00;86.20
60089;BME280;45961;53.574;55.878;2023-08-20T01:18:51;100094.91;;;14.99;86.47
60089;BME280;45961;53.574;55.878;2023-08-20T01:19:52;100094.06;;;15.00;86.46
60089;BME280;45961;53.574;55.878;2023-08-20T01:21:00;100094.91;;;15.03;86.13
60089;BME280;45961;53.574;55.878;2023-08-20T01:22:28;100082.72;;;15.02;86.01
60089;BME280;45961;53.574;55.878;2023-08-20T01:24:00;100093.22;;;14.96;86.17
60089;BME280;45961;53.574;55.878;2023-08-20T01:25:24;100097.56;;;14.97;86.28
60089;BME280;45961;53.574;55.878;2023-08-20T01:28:27;100076.88;;;14.84;86.65
60089;BME280;45961;53.574;55.878;2023-08-20T01:29:29;100088.06;;;14.92;86.67
60089;BME280;45961;53.574;55.878;2023-08-20T01:30:31;100097.59;;;14.96;86.84
60089;BME280;45961;53.574;55.878;2023-08-20T01:31:33;100118.38;;;14.99;86.63
60089;BME280;45961;53.574;55.878;2023-08-20T01:32:35;100097.56;;;14.97;86.68
60089;BME280;45961;53.574;55.878;2023-08-20T01:33:39;100106.22;;;14.98;86.80
60089;BME280;45961;53.574;55.878;2023-08-20T01:34:40;100084.63;;;14.87;86.82
60089;BME280;45961;53.574;55.878;2023-08-20T01:35:41;100100.13;;;14.99;86.60
60089;BME280;45961;53.574;55.878;2023-08-20T01:36:49;100110.56;;;14.99;86.42
60089;BME280;45961;53.574;55.878;2023-08-20T01:37:50;100093.31;;;14.89;86.63
60089;BME280;45961;53.574;55.878;2023-08-20T01:38:51;100102.75;;;15.00;86.60
60089;BME280;45961;53.574;55.878;2023-08-20T01:39:52;100101.91;;;14.97;86.67
60089;BME280;45961;53.574;55.878;2023-08-20T01:40:53;100101.81;;;15.03;86.91
60089;BME280;45961;53.574;55.878;2023-08-20T01:41:55;100096.69;;;14.97;86.89
60089;BME280;45961;53.574;55.878;2023-08-20T01:42:56;100106.16;;;15.05;86.60
60089;BME280;45961;53.574;55.878;2023-08-20T01:43:58;100084.53;;;14.94;86.74
60089;BME280;45961;53.574;55.878;2023-08-20T01:44:59;100099.34;;;14.92;86.38
60089;BME280;45961;53.574;55.878;2023-08-20T01:46:00;100102.81;;;14.93;86.43
60089;BME280;45961;53.574;55.878;2023-08-20T01:47:00;100103.56;;;15.02;86.32
60089;BME280;45961;53.574;55.878;2023-08-20T01:48:04;100126.16;;;15.05;86.39
60089;BME280;45961;53.574;55.878;2023-08-20T01:49:05;100098.44;;;14.96;86.37
60089;BME280;45961;53.574;55.878;2023-08-20T01:50:06;100112.19;;;15.09;86.24
60089;BME280;45961;53.574;55.878;2023-08-20T01:51:07;100104.44;;;15.04;86.12
60089;BME280;45961;53.574;55.878;2023-08-20T01:52:10;100102.63;;;15.10;86.03
60089;BME280;45961;53.574;55.878;2023-08-20T01:53:11;100099.56;;;15.48;85.49
60089;BME280;45961;53.574;55.878;2023-08-20T01:54:12;100106.53;;;16.65;83.20
60089;BME280;45961;53.574;55.878;2023-08-20T01:55:13;100102.81;;;17.66;79.36
60089;BME280;45961;53.574;55.878;2023-08-20T01:56:15;100100.31;;;18.36;75.25
60089;BME280;45961;53.574;55.878;2023-08-20T01:57:17;100092.50;;;19.03;71.77
60089;BME280;45961;53.574;55.878;2023-08-20T01:58:18;100094.47;;;19.56;68.79
60089;BME280;45961;53.574;55.878;2023-08-20T01:59:21;100104.16;;;20.38;66.78
60089;BME280;45961;53.574;55.878;2023-08-20T02:00:23;100094.50;;;20.66;64.45
60089;BME280;45961;53.574;55.878;2023-08-20T02:01:24;100100.81;;;21.11;62.97
60089;BME280;45961;53.574;55.878;2023-08-20T02:02:25;100092.91;;;21.36;62.13
60089;BME280;45961;53.574;55.878;2023-08-20T02:03:26;100107.75;;;21.84;60.31
60089;BME280;45961;53.574;55.878;2023-08-20T02:04:29;100103.34;;;21.84;59.41
60089;BME280;45961;53.574;55.878;2023-08-20T02:05:30;100094.63;;;22.48;58.39
60089;BME280;45961;53.574;55.878;2023-08-20T02:06:32;100102.66;;;22.86;56.93
60089;BME280;45961;53.574;55.878;2023-08-20T02:07:32;100104.25;;;23.10;56.22
60089;BME280;45961;53.574;55.878;2023-08-20T02:08:34;100105.84;;;23.14;55.26
60089;BME280;45961;53.574;55.878;2023-08-20T02:09:35;100104.06;;;23.73;54.73
60089;BME280;45961;53.574;55.878;2023-08-20T02:10:37;100105.31;;;23.83;53.54
60089;BME280;45961;53.574;55.878;2023-08-20T02:11:39;100113.03;;;24.07;52.91
60089;BME280;45961;53.574;55.878;2023-08-20T02:12:41;100078.47;;;24.29;51.68
60089;BME280;45961;53.574;55.878;2023-08-20T02:13:42;100107.22;;;24.18;50.71
60089;BME280;45961;53.574;55.878;2023-08-20T02:14:43;100104.31;;;24.93;50.42
60089;BME280;45961;53.574;55.878;2023-08-20T02:15:44;100102.13;;;25.01;49.43
60089;BME280;45961;53.574;55.878;2023-08-20T02:17:05;100093.88;;;25.56;48.87
60089;BME280;45961;53.574;55.878;2023-08-20T02:18:06;100104.91;;;25.16;48.79
60089;BME280;45961;53.574;55.878;2023-08-20T02:19:08;100092.13;;;24.20;50.04
60089;BME280;45961;53.574;55.878;2023-08-20T02:20:09;100114.69;;;23.13;52.28
60089;BME280;45961;53.574;55.878;2023-08-20T02:21:10;100117.34;;;23.13;53.59
60089;BME280;45961;53.574;55.878;2023-08-20T02:22:12;100107.84;;;22.47;54.72
60089;BME280;45961;53.574;55.878;2023-08-20T02:23:13;100113.25;;;21.54;56.44
60089;BME280;45961;53.574;55.878;2023-08-20T02:24:14;100116.03;;;21.51;57.43
60089;BME280;45961;53.574;55.878;2023-08-20T02:25:15;100082.28;;;21.61;58.01
60089;BME280;45961;53.574;55.878;2023-08-20T02:26:16;100104.66;;;21.73;57.72
60089;BME280;45961;53.574;55.878;2023-08-20T02:27:17;100111.03;;;21.67;57.89
60089;BME280;45961;53.574;55.878;2023-08-20T02:28:18;100098.75;;;21.44;58.17
60089;BME280;45961;53.574;55.878;2023-08-20T02:29:19;100103.47;;;21.34;58.77
60089;BME280;45961;53.574;55.878;2023-08-20T02:30:20;100112.09;;;21.39;58.54
60089;BME280;45961;53.574;55.878;2023-08-20T02:31:21;100075.09;;;21.17;58.71
60089;BME280;45961;53.574;55.878;2023-08-20T02:32:22;100116.06;;;21.50;58.39
60089;BME280;45961;53.574;55.878;2023-08-20T02:33:25;100106.38;;;21.50;58.37
60089;BME280;45961;53.574;55.878;2023-08-20T02:34:26;100112.09;;;21.39;58.67
60089;BME280;45961;53.574;55.878;2023-08-20T02:35:27;100110.66;;;21.29;58.93
60089;BME280;45961;53.574;55.878;2023-08-20T02:36:28;100125.81;;;21.23;59.11
60089;BME280;45961;53.574;55.878;2023-08-20T02:37:30;100106.94;;;21.11;59.43
60089;BME280;45961;53.574;55.878;2023-08-20T02:38:31;100087.22;;;20.98;59.59
60089;BME280;45961;53.574;55.878;2023-08-20T02:39:32;100130.63;;;21.11;59.60
60089;BME280;45961;53.574;55.878;2023-08-20T02:40:38;100116.06;;;20.76;59.82
60089;BME280;45961;53.574;55.878;2023-08-20T02:41:40;100103.69;;;20.78;60.50
60089;BME280;45961;53.574;55.878;2023-08-20T02:42:43;100112.19;;;20.86;60.27
60089;BME280;45961;53.574;55.878;2023-08-20T02:43:44;100122.34;;;20.97;59.77
60089;BME280;45961;53.574;55.878;2023-08-20T02:44:46;100097.16;;;20.90;59.67
60089;BME280;45961;53.574;55.878;2023-08-20T02:45:47;100103.81;;;21.00;59.77
60089;BME280;45961;53.574;55.878;2023-08-20T02:46:48;100103.41;;;20.62;59.84
60089;BME280;45961;53.574;55.878;2023-08-20T02:47:50;100106.47;;;20.49;60.81
60089;BME280;45961;53.574;55.878;2023-08-20T02:48:53;100097.91;;;20.68;60.79
60089;BME280;45961;53.574;55.878;2023-08-20T02:49:55;100095.50;;;20.87;60.32
60089;BME280;45961;53.574;55.878;2023-08-20T02:50:56;100123.41;;;21.16;60.69
60089;BME280;45961;53.574;55.878;2023-08-20T02:51:57;100097.72;;;20.75;59.68
60089;BME280;45961;53.574;55.878;2023-08-20T02:52:58;100107.06;;;20.83;60.68
60089;BME280;45961;53.574;55.878;2023-08-20T02:54:00;100110.25;;;21.16;59.81
60089;BME280;45961;53.574;55.878;2023-08-20T02:55:01;100115.69;;;21.37;59.92
60089;BME280;45961;53.574;55.878;2023-08-20T02:56:05;100125.94;;;21.44;60.24
60089;BME280;45961;53.574;55.878;2023-08-20T02:57:06;100096.78;;;21.49;60.00
60089;BME280;45961;53.574;55.878;2023-08-20T02:58:08;100102.50;;;21.37;59.12
60089;BME280;45961;53.574;55.878;2023-08-20T02:59:10;100117.16;;;21.44;59.29
60089;BME280;45961;53.574;55.878;2023-08-20T03:00:12;100122.44;;;21.44;59.21
60089;BME280;45961;53.574;55.878;2023-08-20T03:01:21;100109.91;;;21.26;59.01
60089;BME280;45961;53.574;55.878;2023-08-20T03:02:23;100109.06;;;21.25;59.49
60089;BME280;45961;53.574;55.878;2023-08-20T03:03:26;100118.41;;;21.34;59.14
60089;BME280;45961;53.574;55.878;2023-08-20T03:04:28;100124.53;;;21.34;59.38
60089;BME280;45961;53.574;55.878;2023-08-20T03:05:29;100107.72;;;21.13;59.65
60089;BME280;45961;53.574;55.878;2023-08-20T03:06:30;100105.75;;;20.95;59.65
60089;BME280;45961;53.574;55.878;2023-08-20T03:07:33;100111.69;;;21.25;59.61
60089;BME280;45961;53.574;55.878;2023-08-20T03:08:35;100096.13;;;21.19;60.16
60089;BME280;45961;53.574;55.878;2023-08-20T03:09:36;100121.91;;;21.34;59.69
60089;BME280;45961;53.574;55.878;2023-08-20T03:10:37;100113.56;;;21.22;59.97
60089;BME280;45961;53.574;55.878;2023-08-20T03:11:38;100111.25;;;21.37;59.71
60089;BME280;45961;53.574;55.878;2023-08-20T03:12:39;100121.75;;;21.39;59.87
60089;BME280;45961;53.574;55.878;2023-08-20T03:13:40;100103.28;;;21.15;59.74
60089;BME280;45961;53.574;55.878;2023-08-20T03:14:42;100118.66;;;21.26;59.81
60089;BME280;45961;53.574;55.878;2023-08-20T03:15:43;100109.44;;;21.14;59.74
60089;BME280;45961;53.574;55.878;2023-08-20T03:16:44;100099.09;;;20.85;59.93
60089;BME280;45961;53.574;55.878;2023-08-20T03:17:48;100123.59;;;21.12;60.16
60089;BME280;45961;53.574;55.878;2023-08-20T03:18:49;100109.28;;;21.19;60.45
60089;BME280;45961;53.574;55.878;2023-08-20T03:19:58;100106.50;;;21.24;59.76
60089;BME280;45961;53.574;55.878;2023-08-20T03:21:00;100105.44;;;21.04;59.47
60089;BME280;45961;53.574;55.878;2023-08-20T03:22:01;100110.31;;;21.15;59.51
60089;BME280;45961;53.574;55.878;2023-08-20T03:23:02;100113.66;;;21.18;59.38
60089;BME280;45961;53.574;55.878;2023-08-20T03:24:04;100107.69;;;21.15;59.53
60089;BME280;45961;53.574;55.878;2023-08-20T03:25:05;100106.78;;;20.91;59.95
60089;BME280;45961;53.574;55.878;2023-08-20T03:26:06;100119.94;;;21.16;60.09
60089;BME280;45961;53.574;55.878;2023-08-20T03:27:07;100114.69;;;21.14;59.79
60089;BME280;45961;53.574;55.878;2023-08-20T03:28:28;100115.28;;;20.99;59.92
60089;BME280;45961;53.574;55.878;2023-08-20T03:29:29;100111.72;;;20.75;60.29
60089;BME280;45961;53.574;55.878;2023-08-20T03:30:30;100118.16;;;20.91;59.87
60089;BME280;45961;53.574;55.878;2023-08-20T03:31:35;100111.66;;;20.77;60.25
60089;BME280;45961;53.574;55.878;2023-08-20T03:32:55;100116.22;;;20.72;60.88
60089;BME280;45961;53.574;55.878;2023-08-20T03:33:56;100119.38;;;20.56;61.08
60089;BME280;45961;53.574;55.878;2023-08-20T03:34:57;100112.41;;;20.55;61.48
60089;BME280;45961;53.574;55.878;2023-08-20T03:35:59;100122.44;;;20.69;61.27
60089;BME280;45961;53.574;55.878;2023-08-20T03:37:01;100110.16;;;20.69;61.08
60089;BME280;45961;53.574;55.878;2023-08-20T03:38:03;100111.03;;;20.42;61.08
60089;BME280;45961;53.574;55.878;2023-08-20T03:39:04;100100.53;;;20.42;61.05
60089;BME280;45961;53.574;55.878;2023-08-20T03:40:06;100122.41;;;20.70;61.52
60089;BME280;45961;53.574;55.878;2023-08-20T03:41:07;100128.72;;;20.90;61.08
60089;BME280;45961;53.574;55.878;2023-08-20T03:42:10;100116.56;;;20.87;60.66
60089;BME280;45961;53.574;55.878;2023-08-20T03:43:12;100112.09;;;20.89;60.53
60089;BME280;45961;53.574;55.878;2023-08-20T03:44:13;100119.56;;;20.50;61.22
60089;BME280;45961;53.574;55.878;2023-08-20T03:45:15;100103.16;;;20.42;61.45
60089;BME280;45961;53.574;55.878;2023-08-20T03:46:16;100124.44;;;20.62;61.89
60089;BME280;45961;53.574;55.878;2023-08-20T03:47:17;100126.16;;;20.63;61.80
60089;BME280;45961;53.574;55.878;2023-08-20T03:48:22;100098.00;;;20.65;61.54
60089;BME280;45961;53.574;55.878;2023-08-20T03:49:23;100108.34;;;20.72;61.29
60089;BME280;45961;53.574;55.878;2023-08-20T03:50:25;100098.44;;;20.78;61.07
60089;BME280;45961;53.574;55.878;2023-08-20T03:51:26;100107.06;;;20.58;61.54
60089;BME280;45961;53.574;55.878;2023-08-20T03:52:28;100117.00;;;20.75;61.27
60089;BME280;45961;53.574;55.878;2023-08-20T03:53:30;100097.72;;;20.75;61.08
60089;BME280;45961;53.574;55.878;2023-08-20T03:54:33;100106.94;;;20.86;61.28
60089;BME280;45961;53.574;55.878;2023-08-20T03:55:37;100109.56;;;20.86;60.94
60089;BME280;45961;53.574;55.878;2023-08-20T03:56:39;100110.59;;;21.07;60.70
60089;BME280;45961;53.574;55.878;2023-08-20T03:57:40;100091.78;;;20.93;60.67
60089;BME280;45961;53.574;55.878;2023-08-20T03:58:41;100108.34;;;20.97;60.92
60089;BME280;45961;53.574;55.878;2023-08-20T03:59:45;100090.72;;;20.74;61.21
60089;BME280;45961;53.574;55.878;2023-08-20T04:00:48;100095.22;;;20.43;61.48
60089;BME280;45961;53.574;55.878;2023-08-20T04:01:50;100099.63;;;20.43;61.90
60089;BME280;45961;53.574;55.878;2023-08-20T04:02:51;100106.31;;;20.27;62.49
60089;BME280;45961;53.574;55.878;2023-08-20T04:03:55;100098.22;;;19.78;63.24
60089;BME280;45961;53.574;55.878;2023-08-20T04:04:57;100091.88;;;20.12;63.04
60089;BME280;45961;53.574;55.878;2023-08-20T04:05:59;100098.44;;;20.27;63.12
60089;BME280;45961;53.574;55.878;2023-08-20T04:07:00;100110.03;;;20.46;62.79
60089;BME280;45961;53.574;55.878;2023-08-20T04:08:01;100120.50;;;20.74;62.19
60089;BME280;45961;53.574;55.878;2023-08-20T04:09:02;100114.78;;;20.63;62.35
60089;BME280;45961;53.574;55.878;2023-08-20T04:10:04;100092.97;;;20.59;62.11
60089;BME280;45961;53.574;55.878;2023-08-20T04:11:06;100102.50;;;20.62;62.02
60089;BME280;45961;53.574;55.878;2023-08-20T04:12:07;100105.00;;;20.66;62.83
60089;BME280;45961;53.574;55.878;2023-08-20T04:13:07;100092.31;;;20.78;62.01
60089;BME280;45961;53.574;55.878;2023-08-20T04:14:09;100103.41;;;20.62;61.83
60089;BME280;45961;53.574;55.878;2023-08-20T04:15:11;100110.16;;;20.69;62.43
60089;BME280;45961;53.574;55.878;2023-08-20T04:16:14;100094.31;;;20.71;62.21
60089;BME280;45961;53.574;55.878;2023-08-20T04:17:15;100104.47;;;20.82;62.18
60089;BME280;45961;53.574;55.878;2023-08-20T04:18:16;100101.53;;;20.91;61.81
60089;BME280;45961;53.574;55.878;2023-08-20T04:19:17;100105.44;;;21.04;61.56
60089;BME280;45961;53.574;55.878;2023-08-20T04:20:18;100107.72;;;21.13;61.80
60089;BME280;45961;53.574;55.878;2023-08-20T04:21:19;100107.13;;;21.05;61.56
60089;BME280;45961;53.574;55.878;2023-08-20T04:22:20;100093.16;;;20.80;61.55
60089;BME280;45961;53.574;55.878;2023-08-20T04:23:21;100106.03;;;20.87;62.13
60089;BME280;45961;53.574;55.878;2023-08-20T04:24:23;100102.13;;;20.99;62.21
60089;BME280;45961;53.574;55.878;2023-08-20T04:25:24;100107.41;;;20.98;62.02
60089;BME280;45961;53.574;55.878;2023-08-20T04:26:25;100108.47;;;21.17;61.66
60089;BME280;45961;53.574;55.878;2023-08-20T04:27:27;100095.97;;;20.74;62.05
60089;BME280;45961;53.574;55.878;2023-08-20T04:28:28;100101.91;;;20.80;62.29
60089;BME280;45961;53.574;55.878;2023-08-20T04:29:29;100105.72;;;20.72;62.63
60089;BME280;45961;53.574;55.878;2023-08-20T04:30:30;100107.25;;;20.77;62.04
60089;BME280;45961;53.574;55.878;2023-08-20T04:31:31;100105.38;;;20.56;62.24
60089;BME280;45961;53.574;55.878;2023-08-20T04:32:37;100080.09;;;20.52;62.08
60089;BME280;45961;53.574;55.878;2023-08-20T04:33:38;100111.97;;;20.41;62.53
60089;BME280;45961;53.574;55.878;2023-08-20T04:34:39;100104.72;;;20.48;62.64
60089;BME280;45961;53.574;55.878;2023-08-20T04:35:41;100110.22;;;20.68;62.43
60089;BME280;45961;53.574;55.878;2023-08-20T04:36:42;100107.59;;;20.68;62.20
60089;BME280;45961;53.574;55.878;2023-08-20T04:37:44;100113.16;;;20.84;62.34
60089;BME280;45961;53.574;55.878;2023-08-20T04:38:44;100108.41;;;20.95;62.02
60089;BME280;45961;53.574;55.878;2023-08-20T04:39:47;100113.69;;;20.68;61.99
60089;BME280;45961;53.574;55.878;2023-08-20T04:40:49;100106.75;;;20.39;62.79
60089;BME280;45961;53.574;55.878;2023-08-20T04:41:51;100112.19;;;20.61;62.79
60089;BME280;45961;53.574;55.878;2023-08-20T04:42:53;100114.56;;;20.69;62.59
60089;BME280;45961;53.574;55.878;2023-08-20T04:43:57;100108.66;;;20.87;61.57
60089;BME280;45961;53.574;55.878;2023-08-20T04:44:59;100095.31;;;21.17;61.31
60089;BME280;45961;53.574;55.878;2023-08-20T04:46:01;100104.13;;;21.16;60.60
60089;BME280;45961;53.574;55.878;2023-08-20T04:47:03;100109.69;;;21.32;60.68
60089;BME280;45961;53.574;55.878;2023-08-20T04:48:07;100108.25;;;21.23;61.04
60089;BME280;45961;53.574;55.878;2023-08-20T04:49:08;100108.19;;;21.25;60.70
60089;BME280;45961;53.574;55.878;2023-08-20T04:50:12;100101.88;;;21.05;61.25
60089;BME280;45961;53.574;55.878;2023-08-20T04:51:29;100115.41;;;21.19;60.89
60089;BME280;45961;53.574;55.878;2023-08-20T04:52:31;100111.13;;;20.92;61.37
60089;BME280;45961;53.574;55.878;2023-08-20T04:53:31;100107.06;;;21.32;61.00
60089;BME280;45961;53.574;55.878;2023-08-20T04:54:33;100110.13;;;21.44;60.60
60089;BME280;45961;53.574;55.878;2023-08-20T04:55:37;100114.84;;;21.58;60.74
60089;BME280;45961;53.574;55.878;2023-08-20T04:56:38;100098.38;;;21.53;60.44
60089;BME280;45961;53.574;55.878;2023-08-20T04:57:39;100109.84;;;21.52;59.81
60089;BME280;45961;53.574;55.878;2023-08-20T04:58:41;100107.72;;;21.38;60.29
60089;BME280;45961;53.574;55.878;2023-08-20T04:59:43;100105.72;;;21.45;60.32
60089;BME280;45961;53.574;55.878;2023-08-20T05:00:48;100084.31;;;21.29;60.31
60089;BME280;45961;53.574;55.878;2023-08-20T05:01:50;100099.06;;;21.58;59.92
60089;BME280;45961;53.574;55.878;2023-08-20T05:02:53;100109.59;;;21.58;60.29
60089;BME280;45961;53.574;55.878;2023-08-20T05:03:57;100105.25;;;21.57;59.86
60089;BME280;45961;53.574;55.878;2023-08-20T05:04:59;100101.41;;;21.42;59.90
60089;BME280;45961;53.574;55.878;2023-08-20T05:06:00;100105.03;;;21.40;59.90
60089;BME280;45961;53.574;55.878;2023-08-20T05:07:02;100094.53;;;21.15;60.28
60089;BME280;45961;53.574;55.878;2023-08-20T05:08:04;100104.28;;;21.36;60.27
60089;BME280;45961;53.574;55.878;2023-08-20T05:09:07;100105.53;;;21.01;60.40
60089;BME280;45961;53.574;55.878;2023-08-20T05:10:08;100100.75;;;21.12;60.17
60089;BME280;45961;53.574;55.878;2023-08-20T05:11:09;100101.44;;;21.17;60.12
60089;BME280;45961;53.574;55.878;2023-08-20T05:12:11;100102.22;;;21.44;59.89
60089;BME280;45961;53.574;55.878;2023-08-20T05:13:12;100105.66;;;21.47;59.62
60089;BME280;45961;53.574;55.878;2023-08-20T05:14:13;100091.25;;;21.08;59.85
60089;BME280;45961;53.574;55.878;2023-08-20T05:15:16;100071.03;;;21.09;59.96
60089;BME280;45961;53.574;55.878;2023-08-20T05:16:17;100097.66;;;21.25;59.89
60089;BME280;45961;53.574;55.878;2023-08-20T05:17:21;100098.03;;;21.14;59.64
60089;BME280;45961;53.574;55.878;2023-08-20T05:18:22;100092.78;;;21.14;59.63
60089;BME280;45961;53.574;55.878;2023-08-20T05:19:24;100099.81;;;21.38;60.17
60089;BME280;45961;53.574;55.878;2023-08-20T05:20:26;100081.81;;;21.26;59.92
60089;BME280;45961;53.574;55.878;2023-08-20T05:21:30;100097.03;;;21.43;59.50
60089;BME280;45961;53.574;55.878;2023-08-20T05:22:31;100093.75;;;21.36;59.42
60089;BME280;45961;53.574;55.878;2023-08-20T05:23:34;100062.41;;;21.29;59.20
60089;BME280;45961;53.574;55.878;2023-08-20T05:24:35;100098.63;;;21.47;59.50
60089;BME280;45961;53.574;55.878;2023-08-20T05:25:39;100085.38;;;21.49;59.63